sensor_id;sensor_type;location;lat;lon;timestamp;P1;durP1;ratioP1;P2;durP2;ratioP2
57249;SDS011;43102;52.014;-0.680;2022-11-04T00:00:00;11.80;;;7.40;;
57249;SDS011;43102;52.014;-0.680;2022-11-04T00:01:05;10.90;;;7.30;;
57249;SDS011;43102;52.014;-0.680;2022-11-04T00:02:02;10.90;;;7.30;;
57249;SDS011;43102;52.014;-0.680;2022-11-04T00:03:00;10.90;;;7.30;;
57249;SDS011;43102;52.014;-0.680;2022-11-04T00:04:00;10.90;;;7.30;;
57249;SDS011;43102;52.014;-0.680;2022-11-04T00:05:00;10.90;;;7.30;;
57249;SDS011;43102;52.014;-0.680;2022-11-04T00:06:00;10.90;;;7.30;;
57249;SDS011;43102;52.014;-0.680;2022-11-04T00:07:00;10.90;;;7.30;;
57249;SDS011;43102;52.014;-0.680;2022-11-04T00:08:10;10.90;;;7.30;;
57249;SDS011;43102;52.014;-0.680;2022-11-04T00:09:00;10.90;;;7.30;;
57249;SDS011;43102;52.014;-0.680;2022-11-04T00:10:00;10.90;;;7.30;;
57249;SDS011;43102;52.014;-0.680;2022-11-04T00:11:10;10.90;;;7.30;;
57249;SDS011;43102;52.014;-0.680;2022-11-04T00:12:10;10.90;;;7.30;;
57249;SDS011;43102;52.014;-0.680;2022-11-04T00:13:00;10.90;;;7.30;;
57249;SDS011;43102;52.014;-0.680;2022-11-04T00:14:00;10.90;;;7.30;;
57249;SDS011;43102;52.014;-0.680;2022-11-04T00:15:10;10.90;;;7.30;;
57249;SDS011;43102;52.014;-0.680;2022-11-04T00:16:11;10.90;;;7.30;;
57249;SDS011;43102;52.014;-0.680;2022-11-04T00:17:11;10.90;;;7.30;;
57249;SDS011;43102;52.014;-0.680;2022-11-04T00:18:00;10.90;;;7.30;;
57249;SDS011;43102;52.014;-0.680;2022-11-04T00:19:01;10.90;;;7.30;;
57249;SDS011;43102;52.014;-0.680;2022-11-04T00:20:10;10.90;;;7.30;;
57249;SDS011;43102;52.014;-0.680;2022-11-04T00:21:10;10.90;;;7.30;;
57249;SDS011;43102;52.014;-0.680;2022-11-04T00:22:10;10.90;;;7.30;;
57249;SDS011;43102;52.014;-0.680;2022-11-04T00:23:10;10.90;;;7.30;;
57249;SDS011;43102;52.014;-0.680;2022-11-04T00:24:11;10.90;;;7.30;;
57249;SDS011;43102;52.014;-0.680;2022-11-04T00:25:10;10.90;;;7.30;;
57249;SDS011;43102;52.014;-0.680;2022-11-04T00:26:10;10.90;;;7.30;;
57249;SDS011;43102;52.014;-0.680;2022-11-04T00:27:11;10.90;;;7.30;;
57249;SDS011;43102;52.014;-0.680;2022-11-04T00:28:13;10.90;;;7.30;;
57249;SDS011;43102;52.014;-0.680;2022-11-04T00:29:00;10.90;;;7.30;;
57249;SDS011;43102;52.014;-0.680;2022-11-04T00:30:00;10.90;;;7.30;;
57249;SDS011;43102;52.014;-0.680;2022-11-04T00:31:11;12.00;;;7.50;;
57249;SDS011;43102;52.014;-0.680;2022-11-04T00:32:10;12.00;;;7.50;;
57249;SDS011;43102;52.014;-0.680;2022-11-04T00:33:10;12.00;;;7.50;;
57249;SDS011;43102;52.014;-0.680;2022-11-04T00:34:00;12.00;;;7.50;;
57249;SDS011;43102;52.014;-0.680;2022-11-04T00:35:00;12.00;;;7.50;;
57249;SDS011;43102;52.014;-0.680;2022-11-04T00:36:00;12.00;;;7.50;;
57249;SDS011;43102;52.014;-0.680;2022-11-04T00:37:02;12.00;;;7.50;;
57249;SDS011;43102;52.014;-0.680;2022-11-04T00:38:00;12.00;;;7.50;;
57249;SDS011;43102;52.014;-0.680;2022-11-04T00:39:00;12.00;;;7.50;;
57249;SDS011;43102;52.014;-0.680;2022-11-04T00:40:00;12.00;;;7.50;;
57249;SDS011;43102;52.014;-0.680;2022-11-04T00:41:00;12.00;;;7.50;;
57249;SDS011;43102;52.014;-0.680;2022-11-04T00:42:00;12.00;;;7.50;;
57249;SDS011;43102;52.014;-0.680;2022-11-04T00:43:00;12.00;;;7.50;;
57249;SDS011;43102;52.014;-0.680;2022-11-04T00:44:02;12.00;;;7.50;;
57249;SDS011;43102;52.014;-0.680;2022-11-04T00:45:00;12.00;;;7.50;;
57249;SDS011;43102;52.014;-0.680;2022-11-04T00:46:00;12.00;;;7.50;;
57249;SDS011;43102;52.014;-0.680;2022-11-04T00:47:00;12.00;;;7.50;;
57249;SDS011;43102;52.014;-0.680;2022-11-04T00:48:00;12.00;;;7.50;;
57249;SDS011;43102;52.014;-0.680;2022-11-04T00:49:00;12.00;;;7.50;;
57249;SDS011;43102;52.014;-0.680;2022-11-04T00:50:00;12.00;;;7.50;;
57249;SDS011;43102;52.014;-0.680;2022-11-04T00:51:00;12.00;;;7.50;;
57249;SDS011;43102;52.014;-0.680;2022-11-04T00:52:00;12.00;;;7.50;;
57249;SDS011;43102;52.014;-0.680;2022-11-04T00:53:01;12.00;;;7.50;;
57249;SDS011;43102;52.014;-0.680;2022-11-04T00:54:00;12.00;;;7.50;;
57249;SDS011;43102;52.014;-0.680;2022-11-04T00:55:00;12.00;;;7.50;;
57249;SDS011;43102;52.014;-0.680;2022-11-04T00:56:00;12.00;;;7.50;;
57249;SDS011;43102;52.014;-0.680;2022-11-04T00:57:00;12.00;;;7.50;;
57249;SDS011;43102;52.014;-0.680;2022-11-04T00:58:00;12.00;;;7.50;;
57249;SDS011;43102;52.014;-0.680;2022-11-04T00:59:00;12.00;;;7.50;;
57249;SDS011;43102;52.014;-0.680;2022-11-04T01:00:00;12.00;;;7.50;;
57249;SDS011;43102;52.014;-0.680;2022-11-04T01:01:00;13.40;;;9.90;;
57249;SDS011;43102;52.014;-0.680;2022-11-04T01:02:00;13.40;;;9.90;;
57249;SDS011;43102;52.014;-0.680;2022-11-04T01:03:01;13.40;;;9.90;;
57249;SDS011;43102;52.014;-0.680;2022-11-04T01:04:00;13.40;;;9.90;;
57249;SDS011;43102;52.014;-0.680;2022-11-04T01:05:00;13.40;;;9.90;;
57249;SDS011;43102;52.014;-0.680;2022-11-04T01:06:00;13.40;;;9.90;;
57249;SDS011;43102;52.014;-0.680;2022-11-04T01:07:00;13.40;;;9.90;;
57249;SDS011;43102;52.014;-0.680;2022-11-04T01:08:00;13.40;;;9.90;;
57249;SDS011;43102;52.014;-0.680;2022-11-04T01:09:04;13.40;;;9.90;;
57249;SDS011;43102;52.014;-0.680;2022-11-04T01:10:00;13.40;;;9.90;;
57249;SDS011;43102;52.014;-0.680;2022-11-04T01:11:05;13.40;;;9.90;;
57249;SDS011;43102;52.014;-0.680;2022-11-04T01:12:00;13.40;;;9.90;;
57249;SDS011;43102;52.014;-0.680;2022-11-04T01:13:00;13.40;;;9.90;;
57249;SDS011;43102;52.014;-0.680;2022-11-04T01:14:00;13.40;;;9.90;;
57249;SDS011;43102;52.014;-0.680;2022-11-04T01:15:00;13.40;;;9.90;;
57249;SDS011;43102;52.014;-0.680;2022-11-04T01:16:02;13.40;;;9.90;;
57249;SDS011;43102;52.014;-0.680;2022-11-04T01:17:00;13.40;;;9.90;;
57249;SDS011;43102;52.014;-0.680;2022-11-04T01:18:00;13.40;;;9.90;;
57249;SDS011;43102;52.014;-0.680;2022-11-04T01:19:01;13.40;;;9.90;;
57249;SDS011;43102;52.014;-0.680;2022-11-04T01:20:00;13.40;;;9.90;;
57249;SDS011;43102;52.014;-0.680;2022-11-04T01:21:02;13.40;;;9.90;;
57249;SDS011;43102;52.014;-0.680;2022-11-04T01:22:00;13.40;;;9.90;;
57249;SDS011;43102;52.014;-0.680;2022-11-04T01:23:00;13.40;;;9.90;;
57249;SDS011;43102;52.014;-0.680;2022-11-04T01:24:00;13.40;;;9.90;;
57249;SDS011;43102;52.014;-0.680;2022-11-04T01:25:00;13.40;;;9.90;;
57249;SDS011;43102;52.014;-0.680;2022-11-04T01:26:03;13.40;;;9.90;;
57249;SDS011;43102;52.014;-0.680;2022-11-04T01:27:00;13.40;;;9.90;;
57249;SDS011;43102;52.014;-0.680;2022-11-04T01:28:00;13.40;;;9.90;;
57249;SDS011;43102;52.014;-0.680;2022-11-04T01:29:00;13.40;;;9.90;;
57249;SDS011;43102;52.014;-0.680;2022-11-04T01:30:00;13.40;;;9.90;;
57249;SDS011;43102;52.014;-0.680;2022-11-04T01:31:09;13.10;;;9.10;;
57249;SDS011;43102;52.014;-0.680;2022-11-04T01:32:00;13.10;;;9.10;;
57249;SDS011;43102;52.014;-0.680;2022-11-04T01:33:00;13.10;;;9.10;;
57249;SDS011;43102;52.014;-0.680;2022-11-04T01:34:00;13.10;;;9.10;;
57249;SDS011;43102;52.014;-0.680;2022-11-04T01:35:00;13.10;;;9.10;;
57249;SDS011;43102;52.014;-0.680;2022-11-04T01:36:01;13.10;;;9.10;;
57249;SDS011;43102;52.014;-0.680;2022-11-04T01:37:00;13.10;;;9.10;;
57249;SDS011;43102;52.014;-0.680;2022-11-04T01:38:00;13.10;;;9.10;;
57249;SDS011;43102;52.014;-0.680;2022-11-04T01:39:00;13.10;;;9.10;;
57249;SDS011;43102;52.014;-0.680;2022-11-04T01:40:00;13.10;;;9.10;;
57249;SDS011;43102;52.014;-0.680;2022-11-04T01:41:01;13.10;;;9.10;;
57249;SDS011;43102;52.014;-0.680;2022-11-04T01:42:00;13.10;;;9.10;;
57249;SDS011;43102;52.014;-0.680;2022-11-04T01:43:00;13.10;;;9.10;;
57249;SDS011;43102;52.014;-0.680;2022-11-04T01:44:03;13.10;;;9.10;;
57249;SDS011;43102;52.014;-0.680;2022-11-04T01:45:00;13.10;;;9.10;;
57249;SDS011;43102;52.014;-0.680;2022-11-04T01:46:01;13.10;;;9.10;;
57249;SDS011;43102;52.014;-0.680;2022-11-04T01:47:00;13.10;;;9.10;;
57249;SDS011;43102;52.014;-0.680;2022-11-04T01:48:05;13.10;;;9.10;;
57249;SDS011;43102;52.014;-0.680;2022-11-04T01:54:01;13.10;;;9.10;;
57249;SDS011;43102;52.014;-0.680;2022-11-04T01:55:04;13.10;;;9.10;;
57249;SDS011;43102;52.014;-0.680;2022-11-04T01:56:04;13.10;;;9.10;;
57249;SDS011;43102;52.014;-0.680;2022-11-04T01:57:02;13.10;;;9.10;;
57249;SDS011;43102;52.014;-0.680;2022-11-04T01:58:04;13.10;;;9.10;;
57249;SDS011;43102;52.014;-0.680;2022-11-04T01:59:06;13.10;;;9.10;;
57249;SDS011;43102;52.014;-0.680;2022-11-04T02:00:04;13.10;;;9.10;;
57249;SDS011;43102;52.014;-0.680;2022-11-04T02:01:01;15.20;;;10.80;;
57249;SDS011;43102;52.014;-0.680;2022-11-04T02:02:01;15.20;;;10.80;;
57249;SDS011;43102;52.014;-0.680;2022-11-04T02:03:03;15.20;;;10.80;;
57249;SDS011;43102;52.014;-0.680;2022-11-04T02:04:10;15.20;;;10.80;;
57249;SDS011;43102;52.014;-0.680;2022-11-04T02:05:00;15.20;;;10.80;;
57249;SDS011;43102;52.014;-0.680;2022-11-04T02:06:01;15.20;;;10.80;;
57249;SDS011;43102;52.014;-0.680;2022-11-04T02:07:03;15.20;;;10.80;;
57249;SDS011;43102;52.014;-0.680;2022-11-04T02:08:02;15.20;;;10.80;;
57249;SDS011;43102;52.014;-0.680;2022-11-04T02:09:00;15.20;;;10.80;;
57249;SDS011;43102;52.014;-0.680;2022-11-04T02:10:01;15.20;;;10.80;;
57249;SDS011;43102;52.014;-0.680;2022-11-04T02:11:02;15.20;;;10.80;;
57249;SDS011;43102;52.014;-0.680;2022-11-04T02:12:10;15.20;;;10.80;;
57249;SDS011;43102;52.014;-0.680;2022-11-04T02:13:02;15.20;;;10.80;;
57249;SDS011;43102;52.014;-0.680;2022-11-04T02:14:01;15.20;;;10.80;;
57249;SDS011;43102;52.014;-0.680;2022-11-04T02:15:00;15.20;;;10.80;;
57249;SDS011;43102;52.014;-0.680;2022-11-04T02:18:15;15.20;;;10.80;;
57249;SDS011;43102;52.014;-0.680;2022-11-04T02:20:07;15.20;;;10.80;;
57249;SDS011;43102;52.014;-0.680;2022-11-04T02:23:17;15.20;;;10.80;;
57249;SDS011;43102;52.014;-0.680;2022-11-04T02:25:02;15.20;;;10.80;;
57249;SDS011;43102;52.014;-0.680;2022-11-04T02:29:14;15.20;;;10.80;;
57249;SDS011;43102;52.014;-0.680;2022-11-04T02:30:07;15.20;;;10.80;;
57249;SDS011;43102;52.014;-0.680;2022-11-04T02:31:02;14.30;;;10.10;;
57249;SDS011;43102;52.014;-0.680;2022-11-04T02:33:16;14.30;;;10.10;;
57249;SDS011;43102;52.014;-0.680;2022-11-04T02:34:06;14.30;;;10.10;;
57249;SDS011;43102;52.014;-0.680;2022-11-04T02:35:07;14.30;;;10.10;;
57249;SDS011;43102;52.014;-0.680;2022-11-04T02:36:08;14.30;;;10.10;;
57249;SDS011;43102;52.014;-0.680;2022-11-04T02:37:08;14.30;;;10.10;;
57249;SDS011;43102;52.014;-0.680;2022-11-04T02:41:12;14.30;;;10.10;;
57249;SDS011;43102;52.014;-0.680;2022-11-04T02:42:08;14.30;;;10.10;;
57249;SDS011;43102;52.014;-0.680;2022-11-04T02:43:06;14.30;;;10.10;;
57249;SDS011;43102;52.014;-0.680;2022-11-04T02:47:05;14.30;;;10.10;;
57249;SDS011;43102;52.014;-0.680;2022-11-04T02:48:13;14.30;;;10.10;;
57249;SDS011;43102;52.014;-0.680;2022-11-04T02:49:08;14.30;;;10.10;;
57249;SDS011;43102;52.014;-0.680;2022-11-04T02:50:07;14.30;;;10.10;;
57249;SDS011;43102;52.014;-0.680;2022-11-04T02:51:02;14.30;;;10.10;;
57249;SDS011;43102;52.014;-0.680;2022-11-04T02:52:04;14.30;;;10.10;;
57249;SDS011;43102;52.014;-0.680;2022-11-04T02:53:06;14.30;;;10.10;;
57249;SDS011;43102;52.014;-0.680;2022-11-04T02:55:08;14.30;;;10.10;;
57249;SDS011;43102;52.014;-0.680;2022-11-04T02:56:02;14.30;;;10.10;;
57249;SDS011;43102;52.014;-0.680;2022-11-04T02:57:03;14.30;;;10.10;;
57249;SDS011;43102;52.014;-0.680;2022-11-04T02:58:04;14.30;;;10.10;;
57249;SDS011;43102;52.014;-0.680;2022-11-04T02:59:04;14.30;;;10.10;;
57249;SDS011;43102;52.014;-0.680;2022-11-04T03:00:03;14.30;;;10.10;;
57249;SDS011;43102;52.014;-0.680;2022-11-04T03:01:02;15.80;;;8.90;;
57249;SDS011;43102;52.014;-0.680;2022-11-04T03:02:04;15.80;;;8.90;;
57249;SDS011;43102;52.014;-0.680;2022-11-04T03:03:06;15.80;;;8.90;;
57249;SDS011;43102;52.014;-0.680;2022-11-04T03:04:05;15.80;;;8.90;;
57249;SDS011;43102;52.014;-0.680;2022-11-04T03:05:01;15.80;;;8.90;;
57249;SDS011;43102;52.014;-0.680;2022-11-04T03:06:01;15.80;;;8.90;;
57249;SDS011;43102;52.014;-0.680;2022-11-04T03:07:02;15.80;;;8.90;;
57249;SDS011;43102;52.014;-0.680;2022-11-04T03:08:04;15.80;;;8.90;;
57249;SDS011;43102;52.014;-0.680;2022-11-04T03:09:01;15.80;;;8.90;;
57249;SDS011;43102;52.014;-0.680;2022-11-04T03:10:04;15.80;;;8.90;;
57249;SDS011;43102;52.014;-0.680;2022-11-04T03:11:06;15.80;;;8.90;;
57249;SDS011;43102;52.014;-0.680;2022-11-04T03:12:04;15.80;;;8.90;;
57249;SDS011;43102;52.014;-0.680;2022-11-04T03:14:07;15.80;;;8.90;;
57249;SDS011;43102;52.014;-0.680;2022-11-04T03:15:04;15.80;;;8.90;;
57249;SDS011;43102;52.014;-0.680;2022-11-04T03:16:04;15.80;;;8.90;;
57249;SDS011;43102;52.014;-0.680;2022-11-04T03:17:03;15.80;;;8.90;;
57249;SDS011;43102;52.014;-0.680;2022-11-04T03:20:02;15.80;;;8.90;;
57249;SDS011;43102;52.014;-0.680;2022-11-04T03:21:03;15.80;;;8.90;;
57249;SDS011;43102;52.014;-0.680;2022-11-04T03:22:07;15.80;;;8.90;;
57249;SDS011;43102;52.014;-0.680;2022-11-04T03:23:00;15.80;;;8.90;;
57249;SDS011;43102;52.014;-0.680;2022-11-04T03:24:01;15.80;;;8.90;;
57249;SDS011;43102;52.014;-0.680;2022-11-04T03:25:01;15.80;;;8.90;;
57249;SDS011;43102;52.014;-0.680;2022-11-04T03:30:07;15.80;;;8.90;;
57249;SDS011;43102;52.014;-0.680;2022-11-04T03:31:03;9.20;;;6.60;;
57249;SDS011;43102;52.014;-0.680;2022-11-04T03:33:21;9.20;;;6.60;;
57249;SDS011;43102;52.014;-0.680;2022-11-04T03:34:00;9.20;;;6.60;;
57249;SDS011;43102;52.014;-0.680;2022-11-04T03:35:00;9.20;;;6.60;;
57249;SDS011;43102;52.014;-0.680;2022-11-04T03:36:02;9.20;;;6.60;;
57249;SDS011;43102;52.014;-0.680;2022-11-04T03:37:00;9.20;;;6.60;;
57249;SDS011;43102;52.014;-0.680;2022-11-04T03:38:01;9.20;;;6.60;;
57249;SDS011;43102;52.014;-0.680;2022-11-04T03:39:00;9.20;;;6.60;;
57249;SDS011;43102;52.014;-0.680;2022-11-04T03:40:01;9.20;;;6.60;;
57249;SDS011;43102;52.014;-0.680;2022-11-04T03:41:02;9.20;;;6.60;;
57249;SDS011;43102;52.014;-0.680;2022-11-04T03:42:13;9.20;;;6.60;;
57249;SDS011;43102;52.014;-0.680;2022-11-04T03:43:06;9.20;;;6.60;;
57249;SDS011;43102;52.014;-0.680;2022-11-04T03:44:00;9.20;;;6.60;;
57249;SDS011;43102;52.014;-0.680;2022-11-04T03:45:00;9.20;;;6.60;;
57249;SDS011;43102;52.014;-0.680;2022-11-04T03:46:00;9.20;;;6.60;;
57249;SDS011;43102;52.014;-0.680;2022-11-04T03:47:00;9.20;;;6.60;;
57249;SDS011;43102;52.014;-0.680;2022-11-04T03:48:00;9.20;;;6.60;;
57249;SDS011;43102;52.014;-0.680;2022-11-04T03:49:01;9.20;;;6.60;;
57249;SDS011;43102;52.014;-0.680;2022-11-04T03:50:07;9.20;;;6.60;;
57249;SDS011;43102;52.014;-0.680;2022-11-04T03:51:00;9.20;;;6.60;;
57249;SDS011;43102;52.014;-0.680;2022-11-04T03:52:00;9.20;;;6.60;;
57249;SDS011;43102;52.014;-0.680;2022-11-04T03:53:00;9.20;;;6.60;;
57249;SDS011;43102;52.014;-0.680;2022-11-04T03:54:00;9.20;;;6.60;;
57249;SDS011;43102;52.014;-0.680;2022-11-04T03:55:01;9.20;;;6.60;;
57249;SDS011;43102;52.014;-0.680;2022-11-04T03:56:19;9.20;;;6.60;;
57249;SDS011;43102;52.014;-0.680;2022-11-04T03:58:03;9.20;;;6.60;;
57249;SDS011;43102;52.014;-0.680;2022-11-04T04:00:06;9.20;;;6.60;;
57249;SDS011;43102;52.014;-0.680;2022-11-04T04:01:17;9.90;;;6.50;;
57249;SDS011;43102;52.014;-0.680;2022-11-04T04:03:12;9.90;;;6.50;;
57249;SDS011;43102;52.014;-0.680;2022-11-04T04:04:05;9.90;;;6.50;;
57249;SDS011;43102;52.014;-0.680;2022-11-04T04:05:08;9.90;;;6.50;;
57249;SDS011;43102;52.014;-0.680;2022-11-04T04:06:07;9.90;;;6.50;;
57249;SDS011;43102;52.014;-0.680;2022-11-04T04:07:04;9.90;;;6.50;;
57249;SDS011;43102;52.014;-0.680;2022-11-04T04:08:06;9.90;;;6.50;;
57249;SDS011;43102;52.014;-0.680;2022-11-04T04:09:10;9.90;;;6.50;;
57249;SDS011;43102;52.014;-0.680;2022-11-04T04:11:07;9.90;;;6.50;;
57249;SDS011;43102;52.014;-0.680;2022-11-04T04:12:05;9.90;;;6.50;;
57249;SDS011;43102;52.014;-0.680;2022-11-04T04:13:04;9.90;;;6.50;;
57249;SDS011;43102;52.014;-0.680;2022-11-04T04:14:06;9.90;;;6.50;;
57249;SDS011;43102;52.014;-0.680;2022-11-04T04:15:12;9.90;;;6.50;;
57249;SDS011;43102;52.014;-0.680;2022-11-04T04:16:06;9.90;;;6.50;;
57249;SDS011;43102;52.014;-0.680;2022-11-04T04:17:04;9.90;;;6.50;;
57249;SDS011;43102;52.014;-0.680;2022-11-04T04:18:04;9.90;;;6.50;;
57249;SDS011;43102;52.014;-0.680;2022-11-04T04:19:12;9.90;;;6.50;;
57249;SDS011;43102;52.014;-0.680;2022-11-04T04:20:03;9.90;;;6.50;;
57249;SDS011;43102;52.014;-0.680;2022-11-04T04:21:04;9.90;;;6.50;;
57249;SDS011;43102;52.014;-0.680;2022-11-04T04:22:05;9.90;;;6.50;;
57249;SDS011;43102;52.014;-0.680;2022-11-04T04:23:15;9.90;;;6.50;;
57249;SDS011;43102;52.014;-0.680;2022-11-04T04:24:13;9.90;;;6.50;;
57249;SDS011;43102;52.014;-0.680;2022-11-04T04:25:13;9.90;;;6.50;;
57249;SDS011;43102;52.014;-0.680;2022-11-04T04:26:12;9.90;;;6.50;;
57249;SDS011;43102;52.014;-0.680;2022-11-04T04:27:10;9.90;;;6.50;;
57249;SDS011;43102;52.014;-0.680;2022-11-04T04:28:01;9.90;;;6.50;;
57249;SDS011;43102;52.014;-0.680;2022-11-04T04:29:03;9.90;;;6.50;;
57249;SDS011;43102;52.014;-0.680;2022-11-04T04:30:10;9.90;;;6.50;;
57249;SDS011;43102;52.014;-0.680;2022-11-04T04:31:01;11.40;;;7.20;;
57249;SDS011;43102;52.014;-0.680;2022-11-04T04:32:02;11.40;;;7.20;;
57249;SDS011;43102;52.014;-0.680;2022-11-04T04:33:06;11.40;;;7.20;;
57249;SDS011;43102;52.014;-0.680;2022-11-04T04:34:00;11.40;;;7.20;;
57249;SDS011;43102;52.014;-0.680;2022-11-04T04:35:10;11.40;;;7.20;;
57249;SDS011;43102;52.014;-0.680;2022-11-04T04:36:01;11.40;;;7.20;;
57249;SDS011;43102;52.014;-0.680;2022-11-04T04:37:06;11.40;;;7.20;;
57249;SDS011;43102;52.014;-0.680;2022-11-04T04:38:14;11.40;;;7.20;;
57249;SDS011;43102;52.014;-0.680;2022-11-04T04:39:15;11.40;;;7.20;;
57249;SDS011;43102;52.014;-0.680;2022-11-04T04:40:11;11.40;;;7.20;;
57249;SDS011;43102;52.014;-0.680;2022-11-04T04:41:19;11.40;;;7.20;;
57249;SDS011;43102;52.014;-0.680;2022-11-04T04:42:10;11.40;;;7.20;;
57249;SDS011;43102;52.014;-0.680;2022-11-04T04:43:13;11.40;;;7.20;;
57249;SDS011;43102;52.014;-0.680;2022-11-04T04:44:13;11.40;;;7.20;;
57249;SDS011;43102;52.014;-0.680;2022-11-04T04:45:03;11.40;;;7.20;;
57249;SDS011;43102;52.014;-0.680;2022-11-04T04:46:01;11.40;;;7.20;;
57249;SDS011;43102;52.014;-0.680;2022-11-04T04:47:01;11.40;;;7.20;;
57249;SDS011;43102;52.014;-0.680;2022-11-04T04:48:01;11.40;;;7.20;;
57249;SDS011;43102;52.014;-0.680;2022-11-04T04:49:08;11.40;;;7.20;;
57249;SDS011;43102;52.014;-0.680;2022-11-04T04:50:01;11.40;;;7.20;;
57249;SDS011;43102;52.014;-0.680;2022-11-04T04:51:01;11.40;;;7.20;;
57249;SDS011;43102;52.014;-0.680;2022-11-04T04:52:03;11.40;;;7.20;;
57249;SDS011;43102;52.014;-0.680;2022-11-04T04:53:02;11.40;;;7.20;;
57249;SDS011;43102;52.014;-0.680;2022-11-04T04:54:00;11.40;;;7.20;;
57249;SDS011;43102;52.014;-0.680;2022-11-04T04:55:00;11.40;;;7.20;;
57249;SDS011;43102;52.014;-0.680;2022-11-04T04:56:00;11.40;;;7.20;;
57249;SDS011;43102;52.014;-0.680;2022-11-04T04:57:00;11.40;;;7.20;;
57249;SDS011;43102;52.014;-0.680;2022-11-04T04:58:00;11.40;;;7.20;;
57249;SDS011;43102;52.014;-0.680;2022-11-04T04:59:00;11.40;;;7.20;;
57249;SDS011;43102;52.014;-0.680;2022-11-04T05:00:03;11.40;;;7.20;;
57249;SDS011;43102;52.014;-0.680;2022-11-04T05:01:00;8.90;;;5.60;;
57249;SDS011;43102;52.014;-0.680;2022-11-04T05:02:00;8.90;;;5.60;;
57249;SDS011;43102;52.014;-0.680;2022-11-04T05:03:00;8.90;;;5.60;;
57249;SDS011;43102;52.014;-0.680;2022-11-04T05:04:00;8.90;;;5.60;;
57249;SDS011;43102;52.014;-0.680;2022-11-04T05:05:00;8.90;;;5.60;;
57249;SDS011;43102;52.014;-0.680;2022-11-04T05:06:00;8.90;;;5.60;;
57249;SDS011;43102;52.014;-0.680;2022-11-04T05:07:00;8.90;;;5.60;;
57249;SDS011;43102;52.014;-0.680;2022-11-04T05:08:05;8.90;;;5.60;;
57249;SDS011;43102;52.014;-0.680;2022-11-04T05:09:00;8.90;;;5.60;;
57249;SDS011;43102;52.014;-0.680;2022-11-04T05:10:00;8.90;;;5.60;;
57249;SDS011;43102;52.014;-0.680;2022-11-04T05:11:00;8.90;;;5.60;;
57249;SDS011;43102;52.014;-0.680;2022-11-04T05:12:00;8.90;;;5.60;;
57249;SDS011;43102;52.014;-0.680;2022-11-04T05:13:11;8.90;;;5.60;;
57249;SDS011;43102;52.014;-0.680;2022-11-04T05:14:00;8.90;;;5.60;;
57249;SDS011;43102;52.014;-0.680;2022-11-04T05:15:00;8.90;;;5.60;;
57249;SDS011;43102;52.014;-0.680;2022-11-04T05:16:05;8.90;;;5.60;;
57249;SDS011;43102;52.014;-0.680;2022-11-04T05:17:00;8.90;;;5.60;;
57249;SDS011;43102;52.014;-0.680;2022-11-04T05:18:01;8.90;;;5.60;;
57249;SDS011;43102;52.014;-0.680;2022-11-04T05:19:00;8.90;;;5.60;;
57249;SDS011;43102;52.014;-0.680;2022-11-04T05:20:00;8.90;;;5.60;;
57249;SDS011;43102;52.014;-0.680;2022-11-04T05:21:11;8.90;;;5.60;;
57249;SDS011;43102;52.014;-0.680;2022-11-04T05:22:00;8.90;;;5.60;;
57249;SDS011;43102;52.014;-0.680;2022-11-04T05:23:00;8.90;;;5.60;;
57249;SDS011;43102;52.014;-0.680;2022-11-04T05:24:00;8.90;;;5.60;;
57249;SDS011;43102;52.014;-0.680;2022-11-04T05:25:00;8.90;;;5.60;;
57249;SDS011;43102;52.014;-0.680;2022-11-04T05:26:00;8.90;;;5.60;;
57249;SDS011;43102;52.014;-0.680;2022-11-04T05:27:00;8.90;;;5.60;;
57249;SDS011;43102;52.014;-0.680;2022-11-04T05:28:01;8.90;;;5.60;;
57249;SDS011;43102;52.014;-0.680;2022-11-04T05:29:00;8.90;;;5.60;;
57249;SDS011;43102;52.014;-0.680;2022-11-04T05:30:00;8.90;;;5.60;;
57249;SDS011;43102;52.014;-0.680;2022-11-04T05:31:02;10.00;;;5.70;;
57249;SDS011;43102;52.014;-0.680;2022-11-04T05:32:00;10.00;;;5.70;;
57249;SDS011;43102;52.014;-0.680;2022-11-04T05:33:06;10.00;;;5.70;;
57249;SDS011;43102;52.014;-0.680;2022-11-04T05:34:00;10.00;;;5.70;;
57249;SDS011;43102;52.014;-0.680;2022-11-04T05:35:00;10.00;;;5.70;;
57249;SDS011;43102;52.014;-0.680;2022-11-04T05:36:11;10.00;;;5.70;;
57249;SDS011;43102;52.014;-0.680;2022-11-04T05:37:00;10.00;;;5.70;;
57249;SDS011;43102;52.014;-0.680;2022-11-04T05:38:00;10.00;;;5.70;;
57249;SDS011;43102;52.014;-0.680;2022-11-04T05:39:00;10.00;;;5.70;;
57249;SDS011;43102;52.014;-0.680;2022-11-04T05:40:00;10.00;;;5.70;;
57249;SDS011;43102;52.014;-0.680;2022-11-04T05:41:00;10.00;;;5.70;;
57249;SDS011;43102;52.014;-0.680;2022-11-04T05:42:00;10.00;;;5.70;;
57249;SDS011;43102;52.014;-0.680;2022-11-04T05:43:00;10.00;;;5.70;;
57249;SDS011;43102;52.014;-0.680;2022-11-04T05:44:02;10.00;;;5.70;;
57249;SDS011;43102;52.014;-0.680;2022-11-04T05:45:00;10.00;;;5.70;;
57249;SDS011;43102;52.014;-0.680;2022-11-04T05:46:01;10.00;;;5.70;;
57249;SDS011;43102;52.014;-0.680;2022-11-04T05:47:00;10.00;;;5.70;;
57249;SDS011;43102;52.014;-0.680;2022-11-04T05:48:02;10.00;;;5.70;;
57249;SDS011;43102;52.014;-0.680;2022-11-04T05:49:00;10.00;;;5.70;;
57249;SDS011;43102;52.014;-0.680;2022-11-04T05:50:00;10.00;;;5.70;;
57249;SDS011;43102;52.014;-0.680;2022-11-04T05:51:00;10.00;;;5.70;;
57249;SDS011;43102;52.014;-0.680;2022-11-04T05:52:00;10.00;;;5.70;;
57249;SDS011;43102;52.014;-0.680;2022-11-04T05:53:02;10.00;;;5.70;;
57249;SDS011;43102;52.014;-0.680;2022-11-04T05:54:00;10.00;;;5.70;;
57249;SDS011;43102;52.014;-0.680;2022-11-04T05:55:00;10.00;;;5.70;;
57249;SDS011;43102;52.014;-0.680;2022-11-04T05:56:00;10.00;;;5.70;;
57249;SDS011;43102;52.014;-0.680;2022-11-04T05:57:00;10.00;;;5.70;;
57249;SDS011;43102;52.014;-0.680;2022-11-04T05:58:00;10.00;;;5.70;;
57249;SDS011;43102;52.014;-0.680;2022-11-04T05:59:00;10.00;;;5.70;;
57249;SDS011;43102;52.014;-0.680;2022-11-04T06:00:00;10.00;;;5.70;;
57249;SDS011;43102;52.014;-0.680;2022-11-04T06:02:01;12.40;;;7.70;;
57249;SDS011;43102;52.014;-0.680;2022-11-04T06:03:00;12.40;;;7.70;;
57249;SDS011;43102;52.014;-0.680;2022-11-04T06:04:02;12.40;;;7.70;;
57249;SDS011;43102;52.014;-0.680;2022-11-04T06:05:00;12.40;;;7.70;;
57249;SDS011;43102;52.014;-0.680;2022-11-04T06:06:00;12.40;;;7.70;;
57249;SDS011;43102;52.014;-0.680;2022-11-04T06:07:00;12.40;;;7.70;;
57249;SDS011;43102;52.014;-0.680;2022-11-04T06:08:00;12.40;;;7.70;;
57249;SDS011;43102;52.014;-0.680;2022-11-04T06:09:01;12.40;;;7.70;;
57249;SDS011;43102;52.014;-0.680;2022-11-04T06:10:00;12.40;;;7.70;;
57249;SDS011;43102;52.014;-0.680;2022-11-04T06:11:00;12.40;;;7.70;;
57249;SDS011;43102;52.014;-0.680;2022-11-04T06:12:00;12.40;;;7.70;;
57249;SDS011;43102;52.014;-0.680;2022-11-04T06:13:00;12.40;;;7.70;;
57249;SDS011;43102;52.014;-0.680;2022-11-04T06:14:00;12.40;;;7.70;;
57249;SDS011;43102;52.014;-0.680;2022-11-04T06:15:00;12.40;;;7.70;;
57249;SDS011;43102;52.014;-0.680;2022-11-04T06:16:00;12.40;;;7.70;;
57249;SDS011;43102;52.014;-0.680;2022-11-04T06:17:01;12.40;;;7.70;;
57249;SDS011;43102;52.014;-0.680;2022-11-04T06:18:00;12.40;;;7.70;;
57249;SDS011;43102;52.014;-0.680;2022-11-04T06:19:09;12.40;;;7.70;;
57249;SDS011;43102;52.014;-0.680;2022-11-04T06:20:00;12.40;;;7.70;;
57249;SDS011;43102;52.014;-0.680;2022-11-04T06:21:17;12.40;;;7.70;;
57249;SDS011;43102;52.014;-0.680;2022-11-04T06:22:00;12.40;;;7.70;;
57249;SDS011;43102;52.014;-0.680;2022-11-04T06:23:00;12.40;;;7.70;;
57249;SDS011;43102;52.014;-0.680;2022-11-04T06:24:01;12.40;;;7.70;;
57249;SDS011;43102;52.014;-0.680;2022-11-04T06:25:00;12.40;;;7.70;;
57249;SDS011;43102;52.014;-0.680;2022-11-04T06:26:00;12.40;;;7.70;;